METAR Formatted Surface Weather Observation
Issued by NWS

Home | Current Version | Previous Version | Text Only | Print | Product List | Glossary On
Versions: 1 2 3 4 5 6 7 8 9 10 11 12 13 14 15 16
000
SPZS31 NSTU 231020
MTRSPP
SPECI NSTU 231018Z VRB03KT 5SM -SHRA SCT018TCU OVC040 27/26 A2979
RMK TCU OHD=


USA.gov is the U.S. government's official web portal to all federal, state and local government web resources and services.